createdAt,value
2023-01-22T00:00:07.241Z,1.40
2023-01-22T00:02:37.186Z,1.53
2023-01-22T00:05:05.008Z,1.43
2023-01-22T00:07:31.692Z,1.73
2023-01-22T00:10:00.206Z,1.47
2023-01-22T00:12:27.419Z,1.60
2023-01-22T00:14:54.404Z,1.63
2023-01-22T00:17:21.241Z,1.43
2023-01-22T00:19:47.991Z,1.47
2023-01-22T00:22:14.705Z,1.23
2023-01-22T00:24:41.546Z,2.00
2023-01-22T00:27:08.292Z,1.63
2023-01-22T00:29:35.173Z,1.30
2023-01-22T00:32:01.915Z,1.33
2023-01-22T00:34:28.732Z,1.53
2023-01-22T00:36:56.169Z,2.17
2023-01-22T00:39:22.937Z,1.27
2023-01-22T00:41:50.062Z,1.33
2023-01-22T00:44:16.971Z,1.33
2023-01-22T00:46:43.993Z,1.47
2023-01-22T00:49:11.884Z,1.53
2023-01-22T00:51:39.869Z,1.27
2023-01-22T00:54:08.456Z,1.10
2023-01-22T00:56:35.019Z,0.93
2023-01-22T00:59:01.592Z,1.67
2023-01-22T01:01:28.084Z,1.00
2023-01-22T01:03:54.513Z,1.20
2023-01-22T01:06:22.344Z,1.57
2023-01-22T01:08:50.230Z,1.37
2023-01-22T01:11:22.320Z,1.20
2023-01-22T01:13:50.612Z,0.80
2023-01-22T01:16:23.969Z,1.23
2023-01-22T01:18:50.776Z,1.10
2023-01-22T01:21:19.407Z,1.23
2023-01-22T01:23:46.349Z,1.00
2023-01-22T01:26:15.499Z,1.10
2023-01-22T01:28:42.852Z,0.90
2023-01-22T01:31:13.427Z,0.87
2023-01-22T01:33:40.455Z,1.23
2023-01-22T01:36:11.936Z,1.23
2023-01-22T01:38:38.914Z,1.40
2023-01-22T01:41:06.555Z,1.00
2023-01-22T01:43:33.292Z,1.70
2023-01-22T01:46:02.602Z,2.00
2023-01-22T01:48:32.832Z,1.50
2023-01-22T01:51:14.533Z,2.03
2023-01-22T01:53:44.585Z,1.10
2023-01-22T01:56:15.668Z,1.93
2023-01-22T01:58:44.909Z,1.33
2023-01-22T02:01:15.072Z,1.17
2023-01-22T02:03:42.058Z,1.23
2023-01-22T02:06:13.239Z,1.80
2023-01-22T02:08:42.705Z,1.30
2023-01-22T02:11:10.464Z,1.30
2023-01-22T02:13:40.998Z,1.73
2023-01-22T02:16:10.398Z,1.73
2023-01-22T02:18:37.332Z,1.23
2023-01-22T02:21:04.397Z,1.57
2023-01-22T02:23:32.215Z,1.53
2023-01-22T02:26:00.284Z,1.70
2023-01-22T02:28:27.304Z,1.53
2023-01-22T02:30:53.953Z,1.70
2023-01-22T02:33:20.655Z,1.43
2023-01-22T02:35:47.254Z,1.70
2023-01-22T02:38:14.403Z,2.03
2023-01-22T02:40:49.512Z,1.83
2023-01-22T02:43:16.775Z,1.60
2023-01-22T02:45:43.397Z,1.57
2023-01-22T02:48:10.158Z,1.97
2023-01-22T02:50:37.033Z,1.53
2023-01-22T02:53:03.741Z,1.90
2023-01-22T02:55:30.851Z,1.10
2023-01-22T02:57:57.466Z,1.53
2023-01-22T03:00:24.366Z,1.57
2023-01-22T03:02:51.114Z,1.70
2023-01-22T03:05:17.757Z,1.23
2023-01-22T03:07:45.338Z,1.50
2023-01-22T03:10:15.420Z,1.63
2023-01-22T03:13:01.854Z,1.73
2023-01-22T03:15:47.461Z,1.70
2023-01-22T03:18:33.198Z,1.50
2023-01-22T03:21:18.891Z,1.77
2023-01-22T03:23:48.912Z,1.10
2023-01-22T03:26:15.679Z,2.10
2023-01-22T03:28:42.303Z,1.50
2023-01-22T03:31:09.581Z,1.57
2023-01-22T03:33:36.609Z,1.90
2023-01-22T03:36:08.725Z,1.47
2023-01-22T03:38:35.771Z,1.23
2023-01-22T03:41:08.205Z,1.77
2023-01-22T03:43:35.178Z,1.87
2023-01-22T03:46:19.683Z,1.67
2023-01-22T03:48:51.163Z,1.93
2023-01-22T03:51:18.016Z,2.30
2023-01-22T03:53:45.447Z,1.67
2023-01-22T03:56:15.357Z,2.43
2023-01-22T03:58:41.946Z,1.80
2023-01-22T04:01:17.375Z,1.60
2023-01-22T04:03:44.191Z,1.90
2023-01-22T04:06:12.049Z,1.90
2023-01-22T04:08:40.860Z,2.33
2023-01-22T04:11:08.101Z,2.10
2023-01-22T04:13:37.999Z,2.17
2023-01-22T04:16:05.796Z,2.07
2023-01-22T04:18:32.483Z,2.13
2023-01-22T04:20:59.356Z,1.70
2023-01-22T04:23:26.325Z,2.17
2023-01-22T04:25:53.508Z,2.17
2023-01-22T04:28:20.541Z,2.00
2023-01-22T04:30:50.135Z,2.30
2023-01-22T04:33:16.811Z,2.10
2023-01-22T04:35:43.587Z,2.13
2023-01-22T04:38:13.400Z,1.77
2023-01-22T04:40:40.427Z,1.97
2023-01-22T04:43:08.390Z,1.67
2023-01-22T04:45:35.149Z,2.33
2023-01-22T04:48:02.115Z,1.43
2023-01-22T04:53:22.879Z,1.83
2023-01-22T04:55:49.891Z,2.20
2023-01-22T04:58:16.563Z,2.07
2023-01-22T05:00:43.317Z,2.53
2023-01-22T05:03:10.720Z,2.50
2023-01-22T05:05:37.362Z,1.87
2023-01-22T05:08:04.184Z,2.00
2023-01-22T05:10:30.750Z,2.40
2023-01-22T05:12:57.427Z,2.43
2023-01-22T05:15:25.225Z,2.33
2023-01-22T05:17:53.303Z,2.20
2023-01-22T05:20:20.647Z,1.67
2023-01-22T05:22:47.598Z,2.30
2023-01-22T05:25:14.326Z,2.20
2023-01-22T05:27:40.918Z,3.13
2023-01-22T05:30:08.731Z,3.50
2023-01-22T05:32:35.428Z,2.37
2023-01-22T05:35:02.476Z,2.40
2023-01-22T05:37:28.974Z,2.50
2023-01-22T05:39:55.674Z,2.63
2023-01-22T05:42:22.387Z,2.50
2023-01-22T05:44:48.972Z,3.23
2023-01-22T05:47:16.449Z,1.83
2023-01-22T05:49:43.096Z,3.43
2023-01-22T05:52:11.051Z,2.23
2023-01-22T05:54:40.818Z,2.73
2023-01-22T05:57:08.003Z,2.43
2023-01-22T05:59:34.731Z,3.00
2023-01-22T06:02:02.272Z,2.53
2023-01-22T06:04:29.198Z,2.53
2023-01-22T06:06:55.875Z,2.77
2023-01-22T06:09:22.604Z,2.43
2023-01-22T06:11:49.456Z,2.67
2023-01-22T06:14:16.150Z,2.87
2023-01-22T06:16:42.844Z,2.37
2023-01-22T06:19:09.907Z,3.20
2023-01-22T06:21:36.588Z,2.43
2023-01-22T06:24:03.257Z,3.00
2023-01-22T06:26:30.007Z,2.67
2023-01-22T06:28:56.664Z,2.63
2023-01-22T06:31:23.439Z,3.10
2023-01-22T06:33:50.212Z,2.10
2023-01-22T06:36:16.921Z,2.40
2023-01-22T06:38:43.508Z,2.30
2023-01-22T06:41:10.318Z,2.37
2023-01-22T06:43:37.789Z,2.60
2023-01-22T06:46:04.953Z,3.43
2023-01-22T06:48:31.629Z,2.43
2023-01-22T06:51:00.067Z,2.63
2023-01-22T06:53:27.005Z,2.60
2023-01-22T06:55:54.051Z,3.10
2023-01-22T06:58:20.684Z,2.10
2023-01-22T07:00:47.358Z,3.93
2023-01-22T07:03:13.982Z,2.60
2023-01-22T07:05:40.954Z,2.77
2023-01-22T07:08:08.009Z,2.03
2023-01-22T07:10:34.726Z,2.40
2023-01-22T07:13:01.867Z,2.43
2023-01-22T07:15:28.380Z,2.23
2023-01-22T07:17:55.212Z,2.47
2023-01-22T07:20:23.963Z,1.90
2023-01-22T07:22:51.789Z,3.03
2023-01-22T07:25:19.827Z,1.83
2023-01-22T07:27:46.480Z,2.53
2023-01-22T07:30:13.872Z,1.63
2023-01-22T07:32:40.423Z,2.47
2023-01-22T07:35:07.417Z,2.43
2023-01-22T07:37:34.029Z,2.30
2023-01-22T07:40:00.699Z,2.60
2023-01-22T07:42:27.326Z,1.77
2023-01-22T07:44:53.934Z,1.87
2023-01-22T07:47:20.526Z,1.70
2023-01-22T07:49:47.239Z,2.37
2023-01-22T07:52:13.850Z,2.20
2023-01-22T07:54:40.538Z,2.10
2023-01-22T07:57:07.150Z,1.80
2023-01-22T07:59:35.356Z,2.50
2023-01-22T08:02:03.571Z,1.97
2023-01-22T08:04:30.563Z,2.10
2023-01-22T08:06:57.271Z,2.10
2023-01-22T08:09:25.872Z,1.80
2023-01-22T08:11:53.444Z,2.60
2023-01-22T08:14:20.360Z,2.43
2023-01-22T08:16:47.361Z,2.10
2023-01-22T08:19:14.561Z,2.07
2023-01-22T08:21:41.194Z,2.37
2023-01-22T08:24:10.415Z,1.93
2023-01-22T08:26:37.587Z,2.27
2023-01-22T08:29:07.269Z,2.27
2023-01-22T08:31:34.596Z,2.13
2023-01-22T08:34:01.516Z,1.63
2023-01-22T08:36:28.224Z,1.90
2023-01-22T08:38:55.258Z,1.63
2023-01-22T08:41:22.153Z,1.90
2023-01-22T08:43:49.165Z,2.27
2023-01-22T08:46:15.842Z,2.33
2023-01-22T08:48:44.408Z,2.43
2023-01-22T08:51:12.438Z,2.03
2023-01-22T08:53:39.258Z,1.70
2023-01-22T08:56:06.746Z,2.23
2023-01-22T08:58:33.510Z,1.50
2023-01-22T09:01:00.508Z,2.23
2023-01-22T09:03:27.440Z,2.00
2023-01-22T09:05:54.316Z,2.37
2023-01-22T09:08:21.878Z,2.07
2023-01-22T09:10:48.524Z,1.83
2023-01-22T09:13:15.239Z,2.93
2023-01-22T09:15:42.008Z,2.03
2023-01-22T09:18:08.859Z,2.67
2023-01-22T09:20:35.546Z,2.50
2023-01-22T09:23:02.034Z,2.27
2023-01-22T09:25:29.360Z,2.80
2023-01-22T09:28:05.054Z,2.43
2023-01-22T09:30:32.576Z,2.30
2023-01-22T09:32:59.352Z,2.40
2023-01-22T09:35:27.557Z,1.63
2023-01-22T09:37:55.054Z,1.83
2023-01-22T09:40:26.801Z,2.10
2023-01-22T09:43:02.782Z,2.87
2023-01-22T09:45:29.583Z,1.93
2023-01-22T09:48:00.971Z,2.37
2023-01-22T09:50:30.515Z,2.20
2023-01-22T09:53:01.359Z,2.50
2023-01-22T09:55:32.399Z,2.20
2023-01-22T09:58:03.164Z,2.07
2023-01-22T10:00:42.089Z,2.60
2023-01-22T10:03:32.610Z,2.33
2023-01-22T10:06:12.897Z,2.70
2023-01-22T10:09:04.679Z,2.43
2023-01-22T10:11:31.422Z,2.33
2023-01-22T10:14:01.171Z,1.90
2023-01-22T10:16:28.544Z,1.73
2023-01-22T10:19:23.782Z,2.03
2023-01-22T10:21:57.806Z,2.40
2023-01-22T10:24:24.386Z,3.47
2023-01-22T10:26:54.454Z,3.93
2023-01-22T10:29:30.444Z,3.13
2023-01-22T10:32:00.549Z,2.33
2023-01-22T10:34:40.008Z,2.77
2023-01-22T10:37:15.846Z,2.33
2023-01-22T10:39:47.966Z,4.23
2023-01-22T10:42:19.839Z,5.80
2023-01-22T10:44:48.140Z,4.40
2023-01-22T10:47:21.164Z,2.00
2023-01-22T10:49:49.559Z,2.40
2023-01-22T10:52:24.459Z,2.23
2023-01-22T10:54:55.571Z,2.33
2023-01-22T10:57:28.024Z,4.00
2023-01-22T11:00:13.614Z,5.13
2023-01-22T11:02:49.214Z,4.57
2023-01-22T11:05:23.806Z,5.53
2023-01-22T11:08:00.756Z,4.20
2023-01-22T11:10:45.269Z,6.53
2023-01-22T11:13:18.823Z,5.80
2023-01-22T11:15:56.443Z,3.53
2023-01-22T11:18:38.500Z,5.00
2023-01-22T11:21:27.825Z,2.47
2023-01-22T11:24:00.479Z,5.03
2023-01-22T11:26:48.641Z,5.40
2023-01-22T11:29:24.781Z,2.43
2023-01-22T11:32:18.783Z,3.17
2023-01-22T11:35:04.172Z,2.57
2023-01-22T11:38:01.203Z,2.47
2023-01-22T11:40:30.904Z,2.83
2023-01-22T11:43:20.700Z,3.47
2023-01-22T11:46:23.045Z,2.57
2023-01-22T11:49:40.965Z,2.43
2023-01-22T11:52:31.060Z,2.83
2023-01-22T11:55:13.602Z,2.60
2023-01-22T11:57:50.770Z,2.60
2023-01-22T12:00:43.240Z,3.00
2023-01-22T12:03:21.875Z,2.23
2023-01-22T12:05:56.856Z,2.10
2023-01-22T12:08:43.497Z,2.87
2023-01-22T12:11:43.869Z,2.70
2023-01-22T12:14:17.835Z,2.97
2023-01-22T12:17:03.077Z,3.23
2023-01-22T12:19:56.293Z,2.60
2023-01-22T12:22:48.607Z,2.40
2023-01-22T12:25:51.113Z,2.77
2023-01-22T12:28:35.643Z,2.67
2023-01-22T12:31:05.850Z,3.07
2023-01-22T12:33:39.297Z,3.73
2023-01-22T12:36:08.037Z,2.60
2023-01-22T12:38:53.605Z,2.63
2023-01-22T12:41:38.773Z,3.17
2023-01-22T12:44:18.140Z,2.60
2023-01-22T12:46:51.033Z,2.73
2023-01-22T12:49:19.085Z,3.00
2023-01-22T12:51:54.314Z,3.13
2023-01-22T12:54:30.301Z,2.57
2023-01-22T12:57:11.178Z,3.17
2023-01-22T12:59:37.683Z,3.07
2023-01-22T13:02:20.006Z,5.60
2023-01-22T13:04:46.840Z,4.10
2023-01-22T13:07:31.767Z,3.30
2023-01-22T13:10:25.165Z,4.03
2023-01-22T13:13:16.039Z,3.97
2023-01-22T13:15:42.868Z,7.17
2023-01-22T13:18:28.246Z,3.93
2023-01-22T13:21:05.845Z,5.97
2023-01-22T13:23:35.931Z,5.70
2023-01-22T13:26:04.649Z,4.37
2023-01-22T13:28:32.460Z,4.57
2023-01-22T13:31:11.448Z,4.40
2023-01-22T13:33:38.169Z,3.30
2023-01-22T13:36:14.464Z,4.30
2023-01-22T13:38:41.164Z,4.83
2023-01-22T13:41:21.975Z,4.50
2023-01-22T13:43:49.284Z,5.00
2023-01-22T13:46:16.556Z,4.23
2023-01-22T13:48:43.600Z,4.47
2023-01-22T13:51:18.471Z,3.83
2023-01-22T13:53:50.054Z,5.43
2023-01-22T13:56:20.479Z,4.13
2023-01-22T13:58:48.824Z,5.20
2023-01-22T14:01:30.766Z,3.97
2023-01-22T14:04:03.032Z,4.67
2023-01-22T14:06:30.515Z,4.90
2023-01-22T14:08:58.071Z,4.53
2023-01-22T14:11:24.640Z,4.53
2023-01-22T14:13:52.595Z,4.80
2023-01-22T14:16:19.517Z,4.40
2023-01-22T14:18:46.870Z,3.27
2023-01-22T14:21:13.745Z,3.80
2023-01-22T14:23:40.352Z,3.93
2023-01-22T14:26:08.492Z,4.13
2023-01-22T14:28:36.434Z,4.20
2023-01-22T14:31:03.014Z,4.40
2023-01-22T14:33:32.382Z,5.10
2023-01-22T14:35:59.469Z,4.83
2023-01-22T14:38:27.036Z,4.13
2023-01-22T14:40:53.976Z,3.90
2023-01-22T14:43:21.065Z,4.73
2023-01-22T14:45:47.993Z,5.63
2023-01-22T14:48:17.385Z,4.03
2023-01-22T14:50:44.298Z,3.77
2023-01-22T14:53:11.591Z,5.97
2023-01-22T14:55:38.438Z,6.33
2023-01-22T14:58:06.424Z,5.30
2023-01-22T15:00:33.243Z,4.83
2023-01-22T15:03:00.851Z,4.43
2023-01-22T15:05:28.248Z,6.10
2023-01-22T15:07:55.439Z,4.60
2023-01-22T15:10:22.676Z,5.23
2023-01-22T15:12:50.936Z,4.93
2023-01-22T15:15:23.087Z,4.43
2023-01-22T15:17:52.934Z,4.77
2023-01-22T15:20:21.248Z,4.97
2023-01-22T15:22:49.775Z,5.07
2023-01-22T15:25:17.013Z,5.13
2023-01-22T15:27:44.718Z,4.30
2023-01-22T15:30:12.924Z,5.20
2023-01-22T15:32:39.809Z,6.40
2023-01-22T15:35:07.008Z,4.87
2023-01-22T15:37:33.500Z,5.47
2023-01-22T15:40:00.180Z,4.63
2023-01-22T15:42:26.861Z,8.30
2023-01-22T15:44:53.536Z,14.53
2023-01-22T15:47:20.299Z,6.90
2023-01-22T15:49:47.122Z,6.30
2023-01-22T15:52:13.964Z,7.13
2023-01-22T15:54:40.776Z,5.37
2023-01-22T15:57:07.645Z,5.67
2023-01-22T15:59:34.298Z,5.30
2023-01-22T16:02:00.986Z,6.63
2023-01-22T16:04:28.061Z,6.27
2023-01-22T16:06:55.707Z,6.10
2023-01-22T16:09:22.355Z,7.50
2023-01-22T16:11:49.916Z,5.47
2023-01-22T16:14:16.497Z,5.03
2023-01-22T16:16:43.282Z,6.37
2023-01-22T16:19:11.187Z,5.77
2023-01-22T16:21:37.844Z,6.70
2023-01-22T16:24:04.986Z,6.93
2023-01-22T16:26:33.669Z,7.83
2023-01-22T16:29:01.936Z,5.50
2023-01-22T16:31:32.966Z,4.30
2023-01-22T16:34:06.847Z,5.47
2023-01-22T16:36:33.618Z,6.13
2023-01-22T16:39:01.197Z,5.80
2023-01-22T16:41:35.780Z,7.00
2023-01-22T16:44:08.246Z,5.60
2023-01-22T16:46:38.291Z,5.17
2023-01-22T16:49:08.144Z,7.07
2023-01-22T16:51:40.163Z,5.57
2023-01-22T16:54:07.969Z,5.67
2023-01-22T16:56:35.345Z,5.70
2023-01-22T16:59:02.541Z,5.33
2023-01-22T17:01:30.726Z,6.20
2023-01-22T17:03:57.409Z,5.63
2023-01-22T17:06:46.500Z,6.03
2023-01-22T17:09:17.130Z,5.40
2023-01-22T17:11:46.521Z,6.73
2023-01-22T17:14:15.196Z,6.10
2023-01-22T17:16:41.795Z,5.83
2023-01-22T17:19:08.353Z,5.27
2023-01-22T17:21:35.161Z,5.30
2023-01-22T17:24:01.911Z,5.47
2023-01-22T17:26:28.667Z,5.23
2023-01-22T17:28:55.509Z,5.20
2023-01-22T17:31:23.392Z,6.70
2023-01-22T17:33:55.545Z,5.40
2023-01-22T17:36:24.477Z,6.03
2023-01-22T17:38:52.453Z,5.13
2023-01-22T17:41:21.616Z,5.33
2023-01-22T17:43:50.880Z,4.93
2023-01-22T17:46:20.106Z,5.53
2023-01-22T17:48:48.338Z,5.93
2023-01-22T17:51:20.774Z,5.70
2023-01-22T17:53:50.492Z,6.27
2023-01-22T17:56:21.059Z,5.23
2023-01-22T17:58:50.677Z,4.67
2023-01-22T18:01:19.881Z,5.83
2023-01-22T18:03:47.318Z,6.17
2023-01-22T18:06:14.326Z,5.50
2023-01-22T18:08:42.483Z,4.50
2023-01-22T18:11:15.975Z,5.00
2023-01-22T18:13:43.963Z,14.33
2023-01-22T18:16:13.890Z,20.47
2023-01-22T18:18:41.617Z,35.33
2023-01-22T18:21:14.140Z,17.23
2023-01-22T18:23:41.068Z,6.30
2023-01-22T18:26:08.269Z,6.57
2023-01-22T18:28:35.572Z,5.77
2023-01-22T18:31:14.431Z,6.40
2023-01-22T18:33:44.507Z,4.97
2023-01-22T18:36:14.330Z,6.33
2023-01-22T18:38:41.407Z,5.17
2023-01-22T18:41:14.031Z,5.83
2023-01-22T18:43:41.653Z,5.50
2023-01-22T18:46:11.308Z,5.03
2023-01-22T18:48:40.048Z,5.43
2023-01-22T18:51:09.201Z,4.87
2023-01-22T18:53:36.702Z,5.33
2023-01-22T18:56:05.809Z,5.77
2023-01-22T18:58:35.334Z,5.87
2023-01-22T19:01:30.862Z,7.00
2023-01-22T19:04:08.949Z,5.73
2023-01-22T19:06:38.622Z,4.17
2023-01-22T19:09:08.535Z,5.17
2023-01-22T19:11:38.008Z,5.07
2023-01-22T19:14:07.355Z,4.20
2023-01-22T19:16:34.149Z,5.43
2023-01-22T19:19:04.403Z,5.23
2023-01-22T19:21:32.507Z,5.80
2023-01-22T19:24:01.758Z,5.40
2023-01-22T19:29:17.590Z,5.17
2023-01-22T19:32:01.538Z,4.57
2023-01-22T19:34:30.406Z,5.03
2023-01-22T19:37:02.414Z,5.37
2023-01-22T19:39:30.105Z,4.03
2023-01-22T19:41:58.280Z,4.13
2023-01-22T19:44:25.821Z,5.07
2023-01-22T19:46:55.581Z,5.73
2023-01-22T19:49:22.224Z,4.73
2023-01-22T19:51:49.050Z,5.63
2023-01-22T19:54:15.785Z,6.97
2023-01-22T19:56:45.533Z,10.50
2023-01-22T19:59:19.114Z,6.83
2023-01-22T20:01:50.168Z,6.30
2023-01-22T20:04:25.832Z,5.00
2023-01-22T20:07:05.196Z,4.23
2023-01-22T20:09:35.120Z,6.37
2023-01-22T20:12:01.998Z,5.17
2023-01-22T20:14:31.186Z,5.03
2023-01-22T20:16:59.065Z,5.53
2023-01-22T20:19:26.247Z,5.03
2023-01-22T20:21:52.840Z,4.47
2023-01-22T20:24:19.494Z,5.07
2023-01-22T20:26:46.040Z,3.93
2023-01-22T20:29:16.109Z,5.53
2023-01-22T20:31:42.713Z,5.30
2023-01-22T20:34:09.418Z,3.93
2023-01-22T20:36:36.065Z,4.57
2023-01-22T20:39:03.316Z,4.30
2023-01-22T20:41:30.848Z,3.47
2023-01-22T20:43:57.941Z,3.63
2023-01-22T20:46:26.216Z,4.13
2023-01-22T20:48:53.429Z,3.30
2023-01-22T20:51:23.128Z,3.97
2023-01-22T20:53:51.217Z,4.23
2023-01-22T20:56:22.728Z,3.37
2023-01-22T20:58:55.770Z,3.73
2023-01-22T21:01:22.335Z,3.70
2023-01-22T21:03:49.000Z,3.40
2023-01-22T21:06:18.227Z,4.70
2023-01-22T21:08:48.981Z,3.23
2023-01-22T21:11:20.464Z,3.10
2023-01-22T21:13:49.080Z,3.43
2023-01-22T21:16:19.569Z,3.53
2023-01-22T21:18:46.779Z,2.97
2023-01-22T21:21:17.997Z,3.93
2023-01-22T21:23:47.536Z,3.23
2023-01-22T21:26:19.375Z,3.10
2023-01-22T21:28:48.178Z,3.20
2023-01-22T21:31:20.149Z,3.90
2023-01-22T21:33:48.807Z,3.37
2023-01-22T21:36:18.499Z,3.10
2023-01-22T21:38:49.232Z,2.93
2023-01-22T21:41:18.037Z,3.00
2023-01-22T21:44:05.468Z,2.63
2023-01-22T21:46:38.237Z,3.10
2023-01-22T21:49:16.579Z,1.93
2023-01-22T21:51:51.754Z,2.70
2023-01-22T21:54:42.550Z,2.90
2023-01-22T21:57:13.496Z,3.83
2023-01-22T21:59:40.410Z,3.57
2023-01-22T22:02:10.204Z,3.00
2023-01-22T22:04:36.963Z,3.80
2023-01-22T22:07:03.744Z,2.43
2023-01-22T22:09:30.767Z,3.07
2023-01-22T22:11:59.533Z,2.90
2023-01-22T22:14:26.442Z,2.53
2023-01-22T22:16:53.654Z,2.60
2023-01-22T22:19:21.861Z,3.80
2023-01-22T22:21:48.528Z,2.57
2023-01-22T22:24:15.265Z,2.83
2023-01-22T22:26:42.009Z,2.97
2023-01-22T22:29:09.802Z,2.60
2023-01-22T22:31:37.717Z,3.23
2023-01-22T22:34:04.495Z,2.87
2023-01-22T22:36:32.057Z,4.17
2023-01-22T22:39:01.003Z,3.37
2023-01-22T22:41:30.662Z,3.33
2023-01-22T22:43:57.301Z,2.70
2023-01-22T22:46:29.348Z,2.53
2023-01-22T22:48:57.958Z,2.70
2023-01-22T22:51:28.127Z,2.77
2023-01-22T22:54:01.676Z,2.60
2023-01-22T22:56:29.189Z,2.07
2023-01-22T22:58:56.763Z,2.73
2023-01-22T23:01:25.384Z,2.60
2023-01-22T23:03:53.645Z,2.67
2023-01-22T23:06:24.068Z,2.53
2023-01-22T23:08:53.329Z,2.70
2023-01-22T23:11:22.735Z,2.30
2023-01-22T23:13:50.037Z,2.67
2023-01-22T23:16:19.135Z,2.13
2023-01-22T23:18:47.601Z,2.20
2023-01-22T23:21:17.408Z,1.97
2023-01-22T23:23:44.463Z,2.07
2023-01-22T23:26:28.121Z,2.50
2023-01-22T23:28:58.017Z,1.97
2023-01-22T23:31:26.656Z,1.90
2023-01-22T23:33:54.848Z,2.40
2023-01-22T23:36:22.011Z,2.90
2023-01-22T23:38:49.389Z,2.77
2023-01-22T23:41:17.611Z,1.97
2023-01-22T23:43:44.585Z,1.97
2023-01-22T23:46:14.433Z,2.23
2023-01-22T23:48:41.301Z,1.67
2023-01-22T23:51:09.352Z,1.87
2023-01-22T23:53:41.090Z,1.97
2023-01-22T23:56:08.192Z,1.17
2023-01-22T23:58:35.884Z,2.90
